createdAt,value
2022-11-25T00:00:13.005Z,3.70
2022-11-25T00:02:42.973Z,3.60
2022-11-25T00:05:09.575Z,3.60
2022-11-25T00:07:36.404Z,3.50
2022-11-25T00:10:03.819Z,3.50
2022-11-25T00:12:31.280Z,3.60
2022-11-25T00:14:57.842Z,3.60
2022-11-25T00:17:24.364Z,3.70
2022-11-25T00:19:50.976Z,3.70
2022-11-25T00:22:17.493Z,3.60
2022-11-25T00:24:44.037Z,3.60
2022-11-25T00:27:10.531Z,3.60
2022-11-25T00:29:37.115Z,3.60
2022-11-25T00:32:03.790Z,3.50
2022-11-25T00:34:30.385Z,3.50
2022-11-25T00:36:56.900Z,3.50
2022-11-25T00:39:24.596Z,3.40
2022-11-25T00:42:10.063Z,3.40
2022-11-25T00:44:37.753Z,3.40
2022-11-25T00:47:06.324Z,3.40
2022-11-25T00:49:33.203Z,3.40
2022-11-25T00:51:59.816Z,3.50
2022-11-25T00:54:26.420Z,3.50
2022-11-25T00:56:53.078Z,3.50
2022-11-25T00:59:19.898Z,3.70
2022-11-25T01:01:46.638Z,3.60
2022-11-25T01:04:13.282Z,3.70
2022-11-25T01:06:39.800Z,3.60
2022-11-25T01:09:06.885Z,3.60
2022-11-25T01:11:33.691Z,3.60
2022-11-25T01:14:01.615Z,3.60
2022-11-25T01:16:28.747Z,3.60
2022-11-25T01:18:55.329Z,3.60
2022-11-25T01:21:26.427Z,3.60
2022-11-25T01:23:53.071Z,3.50
2022-11-25T01:26:21.079Z,3.40
2022-11-25T01:28:48.097Z,3.40
2022-11-25T01:31:19.070Z,3.30
2022-11-25T01:33:45.924Z,3.20
2022-11-25T01:36:16.983Z,3.10
2022-11-25T01:38:44.058Z,3.10
2022-11-25T01:41:12.219Z,3.10
2022-11-25T01:43:38.910Z,3.10
2022-11-25T01:46:09.080Z,3.00
2022-11-25T01:48:43.869Z,2.90
2022-11-25T01:51:33.600Z,2.90
2022-11-25T01:54:01.926Z,2.80
2022-11-25T01:56:30.724Z,2.80
2022-11-25T01:58:57.333Z,2.70
2022-11-25T02:01:24.176Z,2.70
2022-11-25T02:03:52.794Z,2.70
2022-11-25T02:06:26.884Z,2.70
2022-11-25T02:08:55.246Z,2.60
2022-11-25T02:11:22.976Z,2.50
2022-11-25T02:13:50.871Z,2.50
2022-11-25T02:16:17.453Z,2.50
2022-11-25T02:18:44.128Z,2.40
2022-11-25T02:21:10.864Z,2.40
2022-11-25T02:23:51.752Z,2.40
2022-11-25T02:26:18.344Z,2.30
2022-11-25T02:28:44.996Z,2.20
2022-11-25T02:31:11.855Z,2.20
2022-11-25T02:33:38.448Z,2.10
2022-11-25T02:36:07.291Z,2.10
2022-11-25T02:38:42.858Z,2.00
2022-11-25T02:41:28.437Z,2.00
2022-11-25T02:43:55.246Z,2.00
2022-11-25T02:46:23.420Z,2.00
2022-11-25T02:49:08.448Z,2.00
2022-11-25T02:51:35.781Z,1.90
2022-11-25T02:54:02.356Z,2.00
2022-11-25T02:56:31.146Z,1.90
2022-11-25T02:58:57.695Z,1.80
2022-11-25T03:01:24.345Z,1.80
2022-11-25T03:03:50.984Z,1.80
2022-11-25T03:06:17.517Z,1.80
2022-11-25T03:08:44.171Z,1.80
2022-11-25T03:11:10.848Z,1.70
2022-11-25T03:13:37.370Z,1.60
2022-11-25T03:16:04.243Z,1.60
2022-11-25T03:18:30.975Z,1.50
2022-11-25T03:20:57.470Z,1.50
2022-11-25T03:23:24.342Z,1.40
2022-11-25T03:25:50.893Z,1.40
2022-11-25T03:28:17.417Z,1.40
2022-11-25T03:30:44.052Z,1.50
2022-11-25T03:33:10.573Z,1.50
2022-11-25T03:35:37.123Z,1.50
2022-11-25T03:38:03.666Z,1.50
2022-11-25T03:40:30.196Z,1.50
2022-11-25T03:42:56.723Z,1.50
2022-11-25T03:45:23.233Z,1.50
2022-11-25T03:47:49.803Z,1.60
2022-11-25T03:50:16.771Z,1.60
2022-11-25T03:52:43.311Z,1.60
2022-11-25T03:55:10.157Z,1.40
2022-11-25T03:57:36.684Z,1.40
2022-11-25T04:00:03.780Z,1.40
2022-11-25T04:02:30.353Z,1.30
2022-11-25T04:04:57.050Z,1.30
2022-11-25T04:07:23.652Z,1.20
2022-11-25T04:09:50.226Z,1.20
2022-11-25T04:12:35.578Z,1.20
2022-11-25T04:15:02.154Z,1.20
2022-11-25T04:17:28.713Z,1.10
2022-11-25T04:19:55.233Z,1.10
2022-11-25T04:22:21.759Z,1.10
2022-11-25T04:24:48.298Z,1.10
2022-11-25T04:27:14.826Z,1.00
2022-11-25T04:29:41.335Z,1.00
2022-11-25T04:32:07.871Z,1.10
2022-11-25T04:34:34.709Z,1.10
2022-11-25T04:37:01.498Z,1.00
2022-11-25T04:39:28.026Z,1.10
2022-11-25T04:42:14.506Z,1.10
2022-11-25T04:44:41.107Z,1.00
2022-11-25T04:47:07.677Z,1.00
2022-11-25T04:49:34.230Z,1.00
2022-11-25T04:52:00.774Z,1.00
2022-11-25T04:54:27.274Z,0.90
2022-11-25T04:56:53.861Z,0.90
2022-11-25T04:59:39.117Z,1.00
2022-11-25T05:02:06.707Z,1.00
2022-11-25T05:04:33.370Z,1.00
2022-11-25T05:06:59.986Z,1.00
2022-11-25T05:09:26.639Z,0.90
2022-11-25T05:11:53.153Z,1.00
2022-11-25T05:14:19.763Z,1.00
2022-11-25T05:16:46.293Z,0.90
2022-11-25T05:19:12.908Z,0.90
2022-11-25T05:21:39.416Z,0.90
2022-11-25T05:24:05.994Z,1.00
2022-11-25T05:26:32.566Z,1.10
2022-11-25T05:28:59.070Z,1.00
2022-11-25T05:31:25.594Z,1.00
2022-11-25T05:33:52.127Z,0.90
2022-11-25T05:36:18.795Z,0.90
2022-11-25T05:38:45.342Z,0.90
2022-11-25T05:41:12.000Z,0.90
2022-11-25T05:43:38.695Z,0.80
2022-11-25T05:46:06.342Z,0.80
2022-11-25T05:48:33.430Z,0.80
2022-11-25T05:51:00.796Z,0.80
2022-11-25T05:53:27.833Z,0.90
2022-11-25T05:55:58.484Z,0.90
2022-11-25T05:58:25.043Z,0.80
2022-11-25T06:00:51.691Z,0.70
2022-11-25T06:03:18.322Z,0.80
2022-11-25T06:05:44.922Z,0.70
2022-11-25T06:08:11.563Z,0.70
2022-11-25T06:10:39.441Z,0.70
2022-11-25T06:13:06.404Z,0.60
2022-11-25T06:15:32.966Z,0.70
2022-11-25T06:17:59.511Z,0.70
2022-11-25T06:20:27.090Z,0.60
2022-11-25T06:22:54.365Z,0.60
2022-11-25T06:25:20.913Z,0.60
2022-11-25T06:28:11.453Z,0.60
2022-11-25T06:30:33.941Z,0.60
2022-11-25T06:33:00.595Z,0.60
2022-11-25T06:35:27.157Z,0.60
2022-11-25T06:37:53.685Z,0.60
2022-11-25T06:40:20.395Z,0.60
2022-11-25T06:42:47.045Z,0.60
2022-11-25T06:45:13.615Z,0.60
2022-11-25T06:47:40.255Z,0.60
2022-11-25T06:50:08.155Z,0.60
2022-11-25T06:52:34.745Z,0.60
2022-11-25T06:55:03.305Z,0.60
2022-11-25T06:57:29.906Z,0.60
2022-11-25T06:59:56.446Z,0.60
2022-11-25T07:02:23.035Z,0.60
2022-11-25T07:04:49.658Z,0.60
2022-11-25T07:07:17.975Z,0.60
2022-11-25T07:09:44.613Z,0.60
2022-11-25T07:12:12.354Z,0.70
2022-11-25T07:14:39.198Z,0.80
2022-11-25T07:17:11.533Z,0.80
2022-11-25T07:19:38.762Z,0.70
2022-11-25T07:22:05.350Z,0.70
2022-11-25T07:24:31.846Z,0.70
2022-11-25T07:26:58.348Z,0.70
2022-11-25T07:32:11.627Z,0.70
2022-11-25T07:34:38.490Z,0.70
2022-11-25T07:37:05.012Z,0.70
2022-11-25T07:39:31.570Z,0.80
2022-11-25T07:41:58.309Z,0.80
2022-11-25T07:44:25.128Z,0.90
2022-11-25T07:46:51.750Z,0.90
2022-11-25T07:49:19.707Z,1.00
2022-11-25T07:51:54.020Z,1.00
2022-11-25T07:54:21.526Z,1.10
2022-11-25T07:56:48.674Z,1.10
2022-11-25T07:59:19.530Z,1.20
2022-11-25T08:01:46.674Z,1.20
2022-11-25T08:04:19.501Z,1.20
2022-11-25T08:06:48.334Z,1.30
2022-11-25T08:09:16.138Z,1.30
2022-11-25T08:11:42.705Z,1.30
2022-11-25T08:14:10.241Z,1.30
2022-11-25T08:16:37.468Z,1.40
2022-11-25T08:19:05.436Z,1.40
2022-11-25T08:21:32.252Z,1.40
2022-11-25T08:23:58.796Z,1.50
2022-11-25T08:26:27.097Z,1.60
2022-11-25T08:28:54.231Z,1.70
2022-11-25T08:31:22.895Z,1.70
2022-11-25T08:33:51.890Z,1.80
2022-11-25T08:36:18.900Z,2.00
2022-11-25T08:38:46.360Z,2.00
2022-11-25T08:41:14.314Z,2.10
2022-11-25T08:43:41.427Z,2.20
2022-11-25T08:46:11.941Z,2.30
2022-11-25T08:48:38.579Z,2.30
2022-11-25T08:51:13.278Z,2.40
2022-11-25T08:53:39.932Z,2.50
2022-11-25T08:56:07.087Z,2.70
2022-11-25T08:58:33.874Z,2.80
2022-11-25T09:01:01.148Z,2.90
2022-11-25T09:03:27.874Z,3.00
2022-11-25T09:05:54.488Z,3.10
2022-11-25T09:08:21.080Z,3.20
2022-11-25T09:10:47.697Z,3.40
2022-11-25T09:13:14.251Z,3.50
2022-11-25T09:15:40.828Z,3.70
2022-11-25T09:18:08.314Z,3.80
2022-11-25T09:20:35.155Z,3.90
2022-11-25T09:23:02.210Z,4.10
2022-11-25T09:25:29.718Z,4.20
2022-11-25T09:27:56.794Z,4.40
2022-11-25T09:30:24.212Z,4.50
2022-11-25T09:32:51.738Z,4.70
2022-11-25T09:35:18.561Z,4.70
2022-11-25T09:37:45.094Z,4.90
2022-11-25T09:40:19.373Z,4.90
2022-11-25T09:43:17.489Z,5.00
2022-11-25T09:46:09.262Z,5.20
2022-11-25T09:48:59.402Z,5.30
2022-11-25T09:51:34.906Z,5.40
2022-11-25T09:54:07.850Z,5.50
2022-11-25T09:56:48.598Z,5.60
2022-11-25T09:59:18.304Z,5.60
2022-11-25T10:01:47.635Z,5.70
2022-11-25T10:04:17.967Z,5.80
2022-11-25T10:06:55.719Z,5.90
2022-11-25T10:09:24.910Z,6.00
2022-11-25T10:11:57.359Z,6.00
2022-11-25T10:14:32.390Z,6.10
2022-11-25T10:16:58.933Z,6.20
2022-11-25T10:19:43.979Z,6.20
2022-11-25T10:22:16.558Z,6.40
2022-11-25T10:24:43.512Z,6.40
2022-11-25T10:27:15.395Z,6.50
2022-11-25T10:29:42.098Z,6.60
2022-11-25T10:32:20.805Z,6.70
2022-11-25T10:34:49.873Z,6.70
2022-11-25T10:37:24.663Z,6.80
2022-11-25T10:39:51.198Z,6.90
2022-11-25T10:42:21.703Z,6.90
2022-11-25T10:44:48.191Z,7.00
2022-11-25T10:47:34.966Z,7.00
2022-11-25T10:50:04.730Z,7.10
2022-11-25T10:52:36.093Z,7.20
2022-11-25T10:55:16.778Z,7.30
2022-11-25T10:57:43.374Z,7.30
2022-11-25T11:00:28.804Z,7.40
2022-11-25T11:02:55.957Z,7.50
2022-11-25T11:05:24.036Z,7.50
2022-11-25T11:08:08.663Z,7.60
2022-11-25T11:10:35.281Z,7.60
2022-11-25T11:13:22.436Z,7.60
2022-11-25T11:15:49.137Z,7.70
2022-11-25T11:18:34.656Z,7.70
2022-11-25T11:21:01.177Z,7.70
2022-11-25T11:23:28.316Z,7.70
2022-11-25T11:26:05.699Z,7.70
2022-11-25T11:28:36.785Z,7.70
2022-11-25T11:31:07.752Z,7.80
2022-11-25T11:33:36.782Z,7.70
2022-11-25T11:36:10.510Z,7.80
2022-11-25T11:38:40.289Z,7.80
2022-11-25T11:41:21.718Z,7.80
2022-11-25T11:44:08.484Z,7.70
2022-11-25T11:46:45.771Z,7.70
2022-11-25T11:49:30.505Z,7.60
2022-11-25T11:52:04.782Z,7.60
2022-11-25T11:54:35.314Z,7.50
2022-11-25T11:57:28.583Z,7.50
2022-11-25T11:59:55.924Z,7.50
2022-11-25T12:02:41.182Z,7.50
2022-11-25T12:05:10.857Z,7.40
2022-11-25T12:07:46.605Z,7.50
2022-11-25T12:10:31.263Z,7.50
2022-11-25T12:13:03.312Z,7.60
2022-11-25T12:15:35.915Z,7.70
2022-11-25T12:18:04.270Z,7.90
2022-11-25T12:20:35.791Z,8.00
2022-11-25T12:23:37.856Z,8.10
2022-11-25T12:26:08.361Z,8.20
2022-11-25T12:28:42.523Z,8.20
2022-11-25T12:31:18.287Z,8.30
2022-11-25T12:33:44.878Z,8.30
2022-11-25T12:36:16.733Z,8.30
2022-11-25T12:38:56.932Z,8.30
2022-11-25T12:41:23.473Z,8.30
2022-11-25T12:43:49.997Z,8.30
2022-11-25T12:46:24.315Z,8.30
2022-11-25T12:48:52.261Z,8.30
2022-11-25T12:51:21.898Z,8.30
2022-11-25T12:53:54.531Z,8.20
2022-11-25T12:56:41.394Z,8.10
2022-11-25T12:59:25.797Z,8.00
2022-11-25T13:01:57.014Z,8.00
2022-11-25T13:04:26.706Z,8.00
2022-11-25T13:06:53.244Z,8.00
2022-11-25T13:09:19.765Z,8.00
2022-11-25T13:11:59.034Z,8.00
2022-11-25T13:14:26.302Z,8.00
2022-11-25T13:16:54.144Z,8.00
2022-11-25T13:19:21.485Z,7.90
2022-11-25T13:22:02.447Z,7.90
2022-11-25T13:24:33.280Z,7.90
2022-11-25T13:27:03.286Z,8.00
2022-11-25T13:29:29.783Z,8.00
2022-11-25T13:31:59.503Z,8.10
2022-11-25T13:34:28.294Z,8.10
2022-11-25T13:36:56.092Z,8.10
2022-11-25T13:39:32.788Z,8.20
2022-11-25T13:42:04.661Z,8.20
2022-11-25T13:44:36.069Z,8.20
2022-11-25T13:47:21.827Z,8.30
2022-11-25T13:50:06.594Z,8.30
2022-11-25T13:52:33.933Z,8.30
2022-11-25T13:55:02.960Z,8.30
2022-11-25T13:57:31.535Z,8.30
2022-11-25T14:00:04.402Z,8.30
2022-11-25T14:02:36.412Z,8.30
2022-11-25T14:05:02.950Z,8.30
2022-11-25T14:07:32.599Z,8.20
2022-11-25T14:10:14.436Z,8.20
2022-11-25T14:12:47.152Z,8.10
2022-11-25T14:15:29.866Z,8.10
2022-11-25T14:18:14.092Z,8.10
2022-11-25T14:20:43.745Z,8.00
2022-11-25T14:23:22.071Z,8.00
2022-11-25T14:25:52.273Z,8.00
2022-11-25T14:28:21.895Z,8.00
2022-11-25T14:30:53.527Z,8.00
2022-11-25T14:33:22.629Z,8.00
2022-11-25T14:35:51.603Z,8.00
2022-11-25T14:38:29.581Z,8.00
2022-11-25T14:41:02.583Z,8.00
2022-11-25T14:43:30.893Z,7.90
2022-11-25T14:46:10.816Z,7.80
2022-11-25T14:48:38.507Z,7.80
2022-11-25T14:51:10.087Z,7.70
2022-11-25T14:53:48.150Z,7.70
2022-11-25T14:56:23.942Z,7.60
2022-11-25T14:58:51.677Z,7.60
2022-11-25T15:01:25.319Z,7.60
2022-11-25T15:04:06.489Z,7.60
2022-11-25T15:06:34.446Z,7.60
2022-11-25T15:09:01.050Z,7.60
2022-11-25T15:11:32.559Z,7.60
2022-11-25T15:14:01.459Z,7.50
2022-11-25T15:16:32.616Z,7.50
2022-11-25T15:19:00.365Z,7.50
2022-11-25T15:21:40.798Z,7.50
2022-11-25T15:24:25.581Z,7.50
2022-11-25T15:26:53.225Z,7.40
2022-11-25T15:29:20.128Z,7.40
2022-11-25T15:31:48.069Z,7.50
2022-11-25T15:34:15.436Z,7.50
2022-11-25T15:36:42.020Z,7.50
2022-11-25T15:39:14.732Z,7.50
2022-11-25T15:41:44.348Z,7.40
2022-11-25T15:44:17.938Z,7.40
2022-11-25T15:46:50.087Z,7.30
2022-11-25T15:49:17.449Z,7.30
2022-11-25T15:51:48.636Z,7.30
2022-11-25T15:54:21.160Z,7.40
2022-11-25T15:56:49.915Z,7.40
2022-11-25T15:59:35.207Z,7.30
2022-11-25T16:02:02.164Z,7.40
2022-11-25T16:04:28.767Z,7.30
2022-11-25T16:06:56.585Z,7.30
2022-11-25T16:09:25.146Z,7.30
2022-11-25T16:11:51.886Z,7.20
2022-11-25T16:14:26.826Z,7.20
2022-11-25T16:16:59.795Z,7.20
2022-11-25T16:19:33.865Z,7.20
2022-11-25T16:22:05.178Z,7.10
2022-11-25T16:24:33.450Z,7.00
2022-11-25T16:27:04.216Z,7.00
2022-11-25T16:29:32.268Z,7.00
2022-11-25T16:31:59.465Z,7.00
2022-11-25T16:34:26.746Z,7.00
2022-11-25T16:36:53.525Z,7.00
2022-11-25T16:39:20.680Z,7.00
2022-11-25T16:41:57.650Z,6.90
2022-11-25T16:44:25.608Z,7.00
2022-11-25T16:46:53.260Z,6.90
2022-11-25T16:49:20.822Z,6.90
2022-11-25T16:51:47.542Z,6.80
2022-11-25T16:54:14.049Z,6.70
2022-11-25T16:56:41.717Z,6.70
2022-11-25T16:59:17.222Z,6.60
2022-11-25T17:01:43.889Z,6.60
2022-11-25T17:04:13.868Z,6.50
2022-11-25T17:06:41.359Z,6.50
2022-11-25T17:09:08.429Z,6.50
2022-11-25T17:14:00.816Z,6.50
2022-11-25T17:14:34.576Z,6.40
2022-11-25T17:17:02.084Z,6.40
2022-11-25T17:19:32.148Z,6.40
2022-11-25T17:21:58.911Z,6.40
2022-11-25T17:24:25.744Z,6.40
2022-11-25T17:26:57.146Z,6.40
2022-11-25T17:29:29.807Z,6.40
2022-11-25T17:31:58.564Z,6.40
2022-11-25T17:34:25.426Z,6.30
2022-11-25T17:36:52.177Z,6.30
2022-11-25T17:39:18.738Z,6.30
2022-11-25T17:41:47.100Z,6.30
2022-11-25T17:44:16.692Z,6.40
2022-11-25T17:46:43.195Z,6.30
2022-11-25T17:49:13.094Z,6.30
2022-11-25T17:51:39.716Z,6.30
2022-11-25T17:54:06.352Z,6.30
2022-11-25T17:56:32.923Z,6.30
2022-11-25T17:59:04.471Z,6.30
2022-11-25T18:01:31.495Z,6.30
2022-11-25T18:03:58.121Z,6.30
2022-11-25T18:06:24.629Z,6.30
2022-11-25T18:08:51.259Z,6.30
2022-11-25T18:11:18.693Z,6.30
2022-11-25T18:13:46.846Z,6.30
2022-11-25T18:16:14.628Z,6.30
2022-11-25T18:18:41.172Z,6.30
2022-11-25T18:21:09.001Z,6.30
2022-11-25T18:23:35.532Z,6.30
2022-11-25T18:26:02.256Z,6.30
2022-11-25T18:28:29.736Z,6.30
2022-11-25T18:30:58.417Z,6.30
2022-11-25T18:33:25.023Z,6.40
2022-11-25T18:35:53.441Z,6.40
2022-11-25T18:38:19.951Z,6.40
2022-11-25T18:40:50.413Z,6.40
2022-11-25T18:43:23.278Z,6.30
2022-11-25T18:45:50.159Z,6.30
2022-11-25T18:48:24.629Z,6.30
2022-11-25T18:50:52.438Z,6.30
2022-11-25T18:53:19.286Z,6.40
2022-11-25T18:55:46.399Z,6.30
2022-11-25T18:58:19.312Z,6.30
2022-11-25T19:00:48.473Z,6.30
2022-11-25T19:03:19.808Z,6.30
2022-11-25T19:05:46.686Z,6.30
2022-11-25T19:08:13.260Z,6.30
2022-11-25T19:10:40.456Z,6.30
2022-11-25T19:13:08.250Z,6.30
2022-11-25T19:15:37.260Z,6.30
2022-11-25T19:18:04.913Z,6.30
2022-11-25T19:20:32.235Z,6.30
2022-11-25T19:23:01.073Z,6.30
2022-11-25T19:25:28.324Z,6.30
2022-11-25T19:27:57.348Z,6.30
2022-11-25T19:30:25.586Z,6.30
2022-11-25T19:32:54.391Z,6.30
2022-11-25T19:35:29.393Z,6.30
2022-11-25T19:37:55.904Z,6.30
2022-11-25T19:40:22.548Z,6.30
2022-11-25T19:42:49.141Z,6.30
2022-11-25T19:45:16.715Z,6.30
2022-11-25T19:47:48.027Z,6.30
2022-11-25T19:50:22.108Z,6.30
2022-11-25T19:52:49.797Z,6.30
2022-11-25T19:55:17.872Z,6.30
2022-11-25T19:57:44.575Z,6.30
2022-11-25T20:00:12.217Z,6.30
2022-11-25T20:02:39.313Z,6.30
2022-11-25T20:05:08.084Z,6.30
2022-11-25T20:07:37.993Z,6.30
2022-11-25T20:10:19.071Z,6.30
2022-11-25T20:12:46.171Z,6.40
2022-11-25T20:15:12.823Z,6.40
2022-11-25T20:17:42.097Z,6.40
2022-11-25T20:20:28.728Z,6.40
2022-11-25T20:23:11.502Z,6.40
2022-11-25T20:25:48.743Z,6.50
2022-11-25T20:28:21.095Z,6.50
2022-11-25T20:30:51.780Z,6.50
2022-11-25T20:33:24.048Z,6.50
2022-11-25T20:35:54.389Z,6.50
2022-11-25T20:38:27.720Z,6.40
2022-11-25T20:40:58.665Z,6.50
2022-11-25T20:43:41.835Z,6.50
2022-11-25T20:46:34.612Z,6.40
2022-11-25T20:49:03.696Z,6.40
2022-11-25T20:51:35.226Z,6.50
2022-11-25T20:54:08.955Z,6.50
2022-11-25T20:56:40.116Z,6.60
2022-11-25T20:59:20.727Z,6.50
2022-11-25T21:01:58.580Z,6.50
2022-11-25T21:04:26.177Z,6.50
2022-11-25T21:06:53.689Z,6.60
2022-11-25T21:09:25.491Z,6.50
2022-11-25T21:11:59.955Z,6.50
2022-11-25T21:14:26.640Z,6.50
2022-11-25T21:16:53.159Z,6.50
2022-11-25T21:19:19.864Z,6.50
2022-11-25T21:21:48.019Z,6.50
2022-11-25T21:24:33.249Z,6.50
2022-11-25T21:27:01.162Z,6.40
2022-11-25T21:29:28.156Z,6.40
2022-11-25T21:31:54.789Z,6.50
2022-11-25T21:34:21.466Z,6.40
2022-11-25T21:36:51.529Z,6.40
2022-11-25T21:39:29.435Z,6.40
2022-11-25T21:41:57.842Z,6.40
2022-11-25T21:44:27.550Z,6.40
2022-11-25T21:46:54.332Z,6.40
2022-11-25T21:49:21.340Z,6.50
2022-11-25T21:51:48.038Z,6.40
2022-11-25T21:54:14.554Z,6.40
2022-11-25T21:56:41.182Z,6.40
2022-11-25T21:59:08.184Z,6.40
2022-11-25T22:01:34.824Z,6.40
2022-11-25T22:04:01.397Z,6.40
2022-11-25T22:06:29.390Z,6.40
2022-11-25T22:08:56.604Z,6.40
2022-11-25T22:11:34.210Z,6.30
2022-11-25T22:14:02.890Z,6.40
2022-11-25T22:16:31.498Z,6.30
2022-11-25T22:18:58.319Z,6.30
2022-11-25T22:21:24.927Z,6.30
2022-11-25T22:23:51.511Z,6.30
2022-11-25T22:26:28.331Z,6.30
2022-11-25T22:28:56.472Z,6.30
2022-11-25T22:31:23.853Z,6.30
2022-11-25T22:33:50.835Z,6.30
2022-11-25T22:36:30.716Z,6.30
2022-11-25T22:38:59.036Z,6.30
2022-11-25T22:41:25.602Z,6.30
2022-11-25T22:43:52.675Z,6.20
2022-11-25T22:46:19.455Z,6.20
2022-11-25T22:48:48.403Z,6.20
2022-11-25T22:51:17.284Z,6.20
2022-11-25T22:53:44.002Z,6.20
2022-11-25T22:56:16.216Z,6.20
2022-11-25T22:58:42.779Z,6.20
2022-11-25T23:01:17.276Z,6.10
2022-11-25T23:03:44.601Z,6.10
2022-11-25T23:06:14.318Z,6.20
2022-11-25T23:08:40.899Z,6.10
2022-11-25T23:11:14.134Z,6.10
2022-11-25T23:13:40.715Z,6.00
2022-11-25T23:16:07.422Z,6.00
2022-11-25T23:18:38.552Z,6.00
2022-11-25T23:21:06.445Z,6.00
2022-11-25T23:23:33.015Z,5.90
2022-11-25T23:25:59.618Z,5.90
2022-11-25T23:28:26.212Z,5.80
2022-11-25T23:30:54.101Z,5.80
2022-11-25T23:33:37.844Z,5.80
2022-11-25T23:36:10.424Z,5.80
2022-11-25T23:38:57.232Z,5.80
2022-11-25T23:41:25.714Z,5.80
2022-11-25T23:43:52.699Z,5.80
2022-11-25T23:46:21.445Z,5.80
2022-11-25T23:48:52.528Z,5.80
2022-11-25T23:51:19.140Z,5.80
2022-11-25T23:53:45.691Z,5.80
2022-11-25T23:56:12.261Z,5.80
2022-11-25T23:58:44.800Z,5.80
